sensor_id;sensor_type;location;lat;lon;timestamp;pressure;altitude;pressure_sealevel;temperature;humidity
47104;BME280;32853;52.164;5.400;2023-05-22T00:00:04;101503.69;;;18.69;100.00
47104;BME280;32853;52.164;5.400;2023-05-22T00:02:32;101473.97;;;18.50;100.00
47104;BME280;32853;52.164;5.400;2023-05-22T00:04:58;101497.81;;;18.78;100.00
47104;BME280;32853;52.164;5.400;2023-05-22T00:07:24;101510.88;;;18.81;100.00
47104;BME280;32853;52.164;5.400;2023-05-22T00:09:51;101508.31;;;18.80;100.00
47104;BME280;32853;52.164;5.400;2023-05-22T00:12:17;101506.59;;;18.93;100.00
47104;BME280;32853;52.164;5.400;2023-05-22T00:14:43;101503.94;;;18.93;100.00
47104;BME280;32853;52.164;5.400;2023-05-22T00:17:08;101461.22;;;18.56;100.00
47104;BME280;32853;52.164;5.400;2023-05-22T00:19:34;101507.44;;;18.94;100.00
47104;BME280;32853;52.164;5.400;2023-05-22T00:21:59;101496.56;;;18.84;100.00
47104;BME280;32853;52.164;5.400;2023-05-22T00:24:25;101501.31;;;18.79;100.00
47104;BME280;32853;52.164;5.400;2023-05-22T00:26:50;101503.50;;;18.86;100.00
47104;BME280;32853;52.164;5.400;2023-05-22T00:29:16;101441.72;;;18.57;100.00
47104;BME280;32853;52.164;5.400;2023-05-22T00:31:41;101480.03;;;18.80;100.00
47104;BME280;32853;52.164;5.400;2023-05-22T00:34:07;101487.75;;;18.83;100.00
47104;BME280;32853;52.164;5.400;2023-05-22T00:36:33;101459.94;;;18.62;100.00
47104;BME280;32853;52.164;5.400;2023-05-22T00:38:58;101433.69;;;18.45;100.00
47104;BME280;32853;52.164;5.400;2023-05-22T00:41:23;101498.09;;;18.88;100.00
47104;BME280;32853;52.164;5.400;2023-05-22T00:43:48;101484.41;;;18.67;100.00
47104;BME280;32853;52.164;5.400;2023-05-22T00:46:15;101452.22;;;18.59;100.00
47104;BME280;32853;52.164;5.400;2023-05-22T00:48:45;101482.03;;;18.77;100.00
47104;BME280;32853;52.164;5.400;2023-05-22T00:51:11;101488.66;;;18.70;100.00
47104;BME280;32853;52.164;5.400;2023-05-22T00:53:37;101482.09;;;18.61;100.00
47104;BME280;32853;52.164;5.400;2023-05-22T00:56:04;101470.88;;;18.43;100.00
47104;BME280;32853;52.164;5.400;2023-05-22T00:58:31;101447.16;;;18.42;100.00
47104;BME280;32853;52.164;5.400;2023-05-22T01:01:11;101469.25;;;18.55;100.00
47104;BME280;32853;52.164;5.400;2023-05-22T01:03:43;101440.16;;;18.41;100.00
47104;BME280;32853;52.164;5.400;2023-05-22T01:06:20;101472.84;;;18.54;100.00
47104;BME280;32853;52.164;5.400;2023-05-22T01:08:52;101464.06;;;18.53;100.00
47104;BME280;32853;52.164;5.400;2023-05-22T01:17:27;101446.72;;;18.62;100.00
47104;BME280;32853;52.164;5.400;2023-05-22T01:20:20;101443.31;;;18.60;100.00
47104;BME280;32853;52.164;5.400;2023-05-22T01:31:29;101408.94;;;18.32;100.00
47104;BME280;32853;52.164;5.400;2023-05-22T01:33:57;101435.94;;;18.51;100.00
47104;BME280;32853;52.164;5.400;2023-05-22T01:36:28;101398.47;;;18.30;100.00
47104;BME280;32853;52.164;5.400;2023-05-22T01:38:55;101432.66;;;18.47;100.00
47104;BME280;32853;52.164;5.400;2023-05-22T01:41:21;101388.72;;;18.31;100.00
47104;BME280;32853;52.164;5.400;2023-05-22T01:43:46;101428.97;;;18.64;100.00
47104;BME280;32853;52.164;5.400;2023-05-22T01:46:12;101429.31;;;18.72;100.00
47104;BME280;32853;52.164;5.400;2023-05-22T01:48:37;101422.63;;;18.67;100.00
47104;BME280;32853;52.164;5.400;2023-05-22T01:54:31;101423.38;;;18.69;100.00
47104;BME280;32853;52.164;5.400;2023-05-22T01:57:10;101414.16;;;18.60;100.00
47104;BME280;32853;52.164;5.400;2023-05-22T01:59:44;101411.53;;;18.60;100.00
47104;BME280;32853;52.164;5.400;2023-05-22T02:02:23;101404.09;;;18.52;100.00
47104;BME280;32853;52.164;5.400;2023-05-22T02:04:58;101409.28;;;18.54;100.00
47104;BME280;32853;52.164;5.400;2023-05-22T02:07:27;101412.03;;;18.52;100.00
47104;BME280;32853;52.164;5.400;2023-05-22T02:10:00;101399.81;;;18.50;100.00
47104;BME280;32853;52.164;5.400;2023-05-22T02:12:27;101397.47;;;18.45;100.00
47104;BME280;32853;52.164;5.400;2023-05-22T02:14:54;101394.44;;;18.37;100.00
47104;BME280;32853;52.164;5.400;2023-05-22T02:17:25;101404.09;;;18.38;100.00
47104;BME280;32853;52.164;5.400;2023-05-22T02:20:28;101404.41;;;18.34;100.00
47104;BME280;32853;52.164;5.400;2023-05-22T02:23:19;101410.00;;;18.29;100.00
47104;BME280;32853;52.164;5.400;2023-05-22T02:25:51;101378.13;;;18.16;100.00
47104;BME280;32853;52.164;5.400;2023-05-22T02:28:33;101399.41;;;18.29;100.00
47104;BME280;32853;52.164;5.400;2023-05-22T02:30:59;101408.94;;;18.32;100.00
47104;BME280;32853;52.164;5.400;2023-05-22T02:33:25;101383.31;;;18.18;100.00
47104;BME280;32853;52.164;5.400;2023-05-22T02:35:51;101412.91;;;18.24;100.00
47104;BME280;32853;52.164;5.400;2023-05-22T02:38:27;101360.94;;;18.09;100.00
47104;BME280;32853;52.164;5.400;2023-05-22T02:40:55;101394.28;;;18.26;100.00
47104;BME280;32853;52.164;5.400;2023-05-22T02:43:26;101346.38;;;18.02;100.00
47104;BME280;32853;52.164;5.400;2023-05-22T02:45:54;101376.81;;;18.23;100.00
47104;BME280;32853;52.164;5.400;2023-05-22T02:48:29;101352.69;;;18.14;100.00
47104;BME280;32853;52.164;5.400;2023-05-22T02:50:54;101391.16;;;18.34;100.00
47104;BME280;32853;52.164;5.400;2023-05-22T02:53:19;101359.03;;;18.11;100.00
47104;BME280;32853;52.164;5.400;2023-05-22T02:55:45;101372.72;;;18.18;100.00
47104;BME280;32853;52.164;5.400;2023-05-22T02:58:11;101376.81;;;18.09;100.00
47104;BME280;32853;52.164;5.400;2023-05-22T03:00:37;101362.63;;;18.10;100.00
47104;BME280;32853;52.164;5.400;2023-05-22T03:03:05;101370.75;;;18.21;100.00
47104;BME280;32853;52.164;5.400;2023-05-22T03:05:32;101374.53;;;18.17;100.00
47104;BME280;32853;52.164;5.400;2023-05-22T03:07:58;101379.16;;;18.14;100.00
47104;BME280;32853;52.164;5.400;2023-05-22T03:10:25;101345.16;;;17.93;100.00
47104;BME280;32853;52.164;5.400;2023-05-22T03:13:03;101376.44;;;18.15;100.00
47104;BME280;32853;52.164;5.400;2023-05-22T03:15:29;101364.72;;;18.05;100.00
47104;BME280;32853;52.164;5.400;2023-05-22T03:17:55;101371.44;;;18.11;100.00
47104;BME280;32853;52.164;5.400;2023-05-22T03:20:20;101333.94;;;17.90;100.00
47104;BME280;32853;52.164;5.400;2023-05-22T03:22:45;101377.84;;;18.07;100.00
47104;BME280;32853;52.164;5.400;2023-05-22T03:25:18;101358.97;;;17.98;100.00
47104;BME280;32853;52.164;5.400;2023-05-22T03:27:46;101332.78;;;17.80;100.00
47104;BME280;32853;52.164;5.400;2023-05-22T03:30:12;101377.59;;;17.97;100.00
47104;BME280;32853;52.164;5.400;2023-05-22T03:32:38;101377.22;;;17.89;100.00
47104;BME280;32853;52.164;5.400;2023-05-22T03:35:03;101385.69;;;17.94;100.00
47104;BME280;32853;52.164;5.400;2023-05-22T03:37:29;101375.72;;;17.85;100.00
47104;BME280;32853;52.164;5.400;2023-05-22T03:39:54;101388.00;;;17.86;100.00
47104;BME280;32853;52.164;5.400;2023-05-22T03:42:39;101383.34;;;17.89;100.00
47104;BME280;32853;52.164;5.400;2023-05-22T03:45:05;101389.50;;;17.90;100.00
47104;BME280;32853;52.164;5.400;2023-05-22T03:47:48;101393.66;;;17.80;100.00
47104;BME280;32853;52.164;5.400;2023-05-22T03:50:14;101376.44;;;17.73;100.00
47104;BME280;32853;52.164;5.400;2023-05-22T03:52:49;101390.34;;;17.76;100.00
47104;BME280;32853;52.164;5.400;2023-05-22T03:55:15;101386.00;;;17.75;100.00
47104;BME280;32853;52.164;5.400;2023-05-22T03:57:41;101387.63;;;17.62;100.00
47104;BME280;32853;52.164;5.400;2023-05-22T04:00:07;101379.03;;;17.58;100.00
47104;BME280;32853;52.164;5.400;2023-05-22T04:02:37;101375.06;;;17.51;100.00
47104;BME280;32853;52.164;5.400;2023-05-22T04:05:05;101365.53;;;17.49;100.00
47104;BME280;32853;52.164;5.400;2023-05-22T04:07:31;101379.34;;;17.54;100.00
47104;BME280;32853;52.164;5.400;2023-05-22T04:09:56;101374.34;;;17.63;100.00
47104;BME280;32853;52.164;5.400;2023-05-22T04:12:22;101375.31;;;17.77;100.00
47104;BME280;32853;52.164;5.400;2023-05-22T04:14:47;101383.44;;;17.88;100.00
47104;BME280;32853;52.164;5.400;2023-05-22T04:20:09;101368.84;;;17.66;100.00
47104;BME280;32853;52.164;5.400;2023-05-22T04:22:39;101389.66;;;17.73;100.00
47104;BME280;32853;52.164;5.400;2023-05-22T04:25:05;101395.50;;;17.63;100.00
47104;BME280;32853;52.164;5.400;2023-05-22T04:27:35;101396.41;;;17.62;100.00
47104;BME280;32853;52.164;5.400;2023-05-22T04:30:02;101415.47;;;17.69;100.00
47104;BME280;32853;52.164;5.400;2023-05-22T04:32:28;101374.00;;;17.39;100.00
47104;BME280;32853;52.164;5.400;2023-05-22T04:35:01;101417.41;;;17.65;100.00
47104;BME280;32853;52.164;5.400;2023-05-22T04:37:41;101400.31;;;17.57;100.00
47104;BME280;32853;52.164;5.400;2023-05-22T04:40:10;101419.75;;;17.56;100.00
47104;BME280;32853;52.164;5.400;2023-05-22T04:42:38;101391.63;;;17.25;100.00
47104;BME280;32853;52.164;5.400;2023-05-22T04:45:04;101431.09;;;17.58;100.00
47104;BME280;32853;52.164;5.400;2023-05-22T04:47:30;101390.22;;;17.19;100.00
47104;BME280;32853;52.164;5.400;2023-05-22T04:49:57;101434.75;;;17.41;100.00
47104;BME280;32853;52.164;5.400;2023-05-22T04:52:23;101435.88;;;17.51;100.00
47104;BME280;32853;52.164;5.400;2023-05-22T04:54:48;101424.25;;;17.39;100.00
47104;BME280;32853;52.164;5.400;2023-05-22T04:57:16;101410.91;;;17.27;100.00
47104;BME280;32853;52.164;5.400;2023-05-22T04:59:42;101440.41;;;17.49;100.00
47104;BME280;32853;52.164;5.400;2023-05-22T05:02:08;101424.94;;;17.43;100.00
47104;BME280;32853;52.164;5.400;2023-05-22T05:04:33;101440.81;;;17.57;100.00
47104;BME280;32853;52.164;5.400;2023-05-22T05:06:58;101444.91;;;17.63;100.00
47104;BME280;32853;52.164;5.400;2023-05-22T05:09:29;101407.94;;;17.47;100.00
47104;BME280;32853;52.164;5.400;2023-05-22T05:12:01;101437.97;;;17.60;100.00
47104;BME280;32853;52.164;5.400;2023-05-22T05:14:26;101396.28;;;17.35;100.00
47104;BME280;32853;52.164;5.400;2023-05-22T05:16:52;101436.19;;;17.77;100.00
47104;BME280;32853;52.164;5.400;2023-05-22T05:19:17;101438.44;;;17.83;100.00
47104;BME280;32853;52.164;5.400;2023-05-22T05:21:46;101385.63;;;17.51;100.00
47104;BME280;32853;52.164;5.400;2023-05-22T05:24:11;101438.22;;;17.71;100.00
47104;BME280;32853;52.164;5.400;2023-05-22T05:26:37;101433.34;;;17.80;100.00
47104;BME280;32853;52.164;5.400;2023-05-22T05:29:02;101438.72;;;17.92;100.00
47104;BME280;32853;52.164;5.400;2023-05-22T05:31:30;101441.47;;;18.05;100.00
47104;BME280;32853;52.164;5.400;2023-05-22T05:33:57;101426.44;;;17.91;100.00
47104;BME280;32853;52.164;5.400;2023-05-22T05:36:23;101425.69;;;18.04;100.00
47104;BME280;32853;52.164;5.400;2023-05-22T05:38:49;101327.34;;;17.38;100.00
47104;BME280;32853;52.164;5.400;2023-05-22T05:41:15;101374.94;;;17.83;100.00
47104;BME280;32853;52.164;5.400;2023-05-22T05:43:40;101436.09;;;18.21;100.00
47104;BME280;32853;52.164;5.400;2023-05-22T05:46:06;101427.09;;;18.23;100.00
47104;BME280;32853;52.164;5.400;2023-05-22T05:48:31;101430.88;;;18.34;100.00
47104;BME280;32853;52.164;5.400;2023-05-22T05:50:57;101381.28;;;18.09;100.00
47104;BME280;32853;52.164;5.400;2023-05-22T05:53:24;101314.28;;;17.80;100.00
47104;BME280;32853;52.164;5.400;2023-05-22T05:55:49;101360.81;;;18.25;100.00
47104;BME280;32853;52.164;5.400;2023-05-22T05:58:15;101382.91;;;18.38;100.00
47104;BME280;32853;52.164;5.400;2023-05-22T06:00:49;101381.09;;;18.39;100.00
47104;BME280;32853;52.164;5.400;2023-05-22T06:03:14;101398.25;;;18.33;100.00
47104;BME280;32853;52.164;5.400;2023-05-22T06:05:57;101429.13;;;18.61;100.00
47104;BME280;32853;52.164;5.400;2023-05-22T06:08:23;101404.53;;;18.59;100.00
47104;BME280;32853;52.164;5.400;2023-05-22T06:10:49;101415.78;;;18.77;100.00
47104;BME280;32853;52.164;5.400;2023-05-22T06:13:16;101414.63;;;18.81;100.00
47104;BME280;32853;52.164;5.400;2023-05-22T06:15:41;101425.78;;;18.86;100.00
47104;BME280;32853;52.164;5.400;2023-05-22T06:18:06;101386.84;;;18.74;100.00
47104;BME280;32853;52.164;5.400;2023-05-22T06:20:32;101391.22;;;18.88;100.00
47104;BME280;32853;52.164;5.400;2023-05-22T06:22:57;101395.28;;;19.06;100.00
47104;BME280;32853;52.164;5.400;2023-05-22T06:25:23;101408.72;;;18.90;100.00
47104;BME280;32853;52.164;5.400;2023-05-22T06:27:50;101436.72;;;19.21;100.00
47104;BME280;32853;52.164;5.400;2023-05-22T06:30:31;101426.59;;;19.40;100.00
47104;BME280;32853;52.164;5.400;2023-05-22T06:33:03;101398.97;;;19.30;100.00
47104;BME280;32853;52.164;5.400;2023-05-22T06:35:30;101400.91;;;19.41;100.00
47104;BME280;32853;52.164;5.400;2023-05-22T06:38:09;101441.06;;;19.62;100.00
47104;BME280;32853;52.164;5.400;2023-05-22T06:40:34;101397.59;;;19.37;100.00
47104;BME280;32853;52.164;5.400;2023-05-22T06:43:00;101429.19;;;19.80;100.00
47104;BME280;32853;52.164;5.400;2023-05-22T06:45:25;101427.06;;;19.98;100.00
47104;BME280;32853;52.164;5.400;2023-05-22T06:47:52;101432.69;;;20.19;100.00
47104;BME280;32853;52.164;5.400;2023-05-22T06:50:18;101392.84;;;19.93;100.00
47104;BME280;32853;52.164;5.400;2023-05-22T06:52:44;101417.59;;;20.19;100.00
47104;BME280;32853;52.164;5.400;2023-05-22T06:55:09;101400.16;;;20.15;100.00
47104;BME280;32853;52.164;5.400;2023-05-22T06:57:35;101440.06;;;20.39;100.00
47104;BME280;32853;52.164;5.400;2023-05-22T07:00:00;101441.47;;;20.45;100.00
47104;BME280;32853;52.164;5.400;2023-05-22T07:02:26;101451.88;;;20.48;100.00
47104;BME280;32853;52.164;5.400;2023-05-22T07:04:51;101440.53;;;20.70;100.00
47104;BME280;32853;52.164;5.400;2023-05-22T07:07:17;101409.31;;;20.60;100.00
47104;BME280;32853;52.164;5.400;2023-05-22T07:09:43;101424.63;;;20.57;100.00
47104;BME280;32853;52.164;5.400;2023-05-22T07:12:09;101460.25;;;20.91;100.00
47104;BME280;32853;52.164;5.400;2023-05-22T07:14:35;101452.81;;;20.83;100.00
47104;BME280;32853;52.164;5.400;2023-05-22T07:17:00;101383.97;;;20.44;100.00
47104;BME280;32853;52.164;5.400;2023-05-22T07:19:26;101452.50;;;20.88;100.00
47104;BME280;32853;52.164;5.400;2023-05-22T07:21:51;101458.31;;;21.17;100.00
47104;BME280;32853;52.164;5.400;2023-05-22T07:24:16;101414.47;;;20.99;100.00
47104;BME280;32853;52.164;5.400;2023-05-22T07:26:42;101453.94;;;21.16;100.00
47104;BME280;32853;52.164;5.400;2023-05-22T07:29:10;101458.72;;;21.24;100.00
47104;BME280;32853;52.164;5.400;2023-05-22T07:31:41;101434.75;;;21.24;100.00
47104;BME280;32853;52.164;5.400;2023-05-22T07:34:07;101395.97;;;20.97;100.00
47104;BME280;32853;52.164;5.400;2023-05-22T07:36:32;101371.56;;;20.68;100.00
47104;BME280;32853;52.164;5.400;2023-05-22T07:39:03;101447.69;;;21.41;100.00
47104;BME280;32853;52.164;5.400;2023-05-22T07:41:37;101459.59;;;21.70;100.00
47104;BME280;32853;52.164;5.400;2023-05-22T07:44:04;101433.09;;;21.69;100.00
47104;BME280;32853;52.164;5.400;2023-05-22T07:46:29;101443.53;;;21.83;100.00
47104;BME280;32853;52.164;5.400;2023-05-22T07:48:58;101459.41;;;21.85;100.00
47104;BME280;32853;52.164;5.400;2023-05-22T07:51:23;101420.88;;;21.66;100.00
47104;BME280;32853;52.164;5.400;2023-05-22T07:53:50;101461.91;;;21.64;100.00
47104;BME280;32853;52.164;5.400;2023-05-22T07:56:15;101374.13;;;21.29;100.00
47104;BME280;32853;52.164;5.400;2023-05-22T07:58:41;101467.94;;;22.23;100.00
47104;BME280;32853;52.164;5.400;2023-05-22T08:01:08;101466.31;;;21.98;100.00
47104;BME280;32853;52.164;5.400;2023-05-22T08:03:36;101465.84;;;22.04;100.00
47104;BME280;32853;52.164;5.400;2023-05-22T08:06:02;101468.78;;;22.24;100.00
47104;BME280;32853;52.164;5.400;2023-05-22T08:08:31;101439.97;;;22.29;100.00
47104;BME280;32853;52.164;5.400;2023-05-22T08:10:58;101476.44;;;22.40;100.00
47104;BME280;32853;52.164;5.400;2023-05-22T08:13:29;101431.97;;;22.29;100.00
47104;BME280;32853;52.164;5.400;2023-05-22T08:16:10;101484.63;;;22.59;100.00
47104;BME280;32853;52.164;5.400;2023-05-22T08:18:46;101473.75;;;22.84;100.00
47104;BME280;32853;52.164;5.400;2023-05-22T08:21:19;101454.81;;;22.87;100.00
47104;BME280;32853;52.164;5.400;2023-05-22T08:23:48;101488.03;;;22.95;100.00
47104;BME280;32853;52.164;5.400;2023-05-22T08:26:20;101471.50;;;23.01;100.00
47104;BME280;32853;52.164;5.400;2023-05-22T08:28:47;101490.19;;;22.89;100.00
47104;BME280;32853;52.164;5.400;2023-05-22T08:31:20;101478.09;;;22.85;100.00
47104;BME280;32853;52.164;5.400;2023-05-22T08:33:46;101446.09;;;22.85;100.00
47104;BME280;32853;52.164;5.400;2023-05-22T08:36:13;101434.81;;;23.14;100.00
47104;BME280;32853;52.164;5.400;2023-05-22T08:38:39;101439.31;;;23.13;100.00
47104;BME280;32853;52.164;5.400;2023-05-22T08:41:05;101474.97;;;23.44;100.00
47104;BME280;32853;52.164;5.400;2023-05-22T08:43:32;101470.06;;;23.49;100.00
47104;BME280;32853;52.164;5.400;2023-05-22T08:46:04;101471.47;;;23.12;100.00
47104;BME280;32853;52.164;5.400;2023-05-22T08:48:40;101442.06;;;22.80;100.00
47104;BME280;32853;52.164;5.400;2023-05-22T08:51:32;101461.59;;;23.44;100.00
47104;BME280;32853;52.164;5.400;2023-05-22T08:53:59;101467.78;;;23.45;100.00
47104;BME280;32853;52.164;5.400;2023-05-22T08:56:27;101462.91;;;23.61;100.00
47104;BME280;32853;52.164;5.400;2023-05-22T08:58:54;101437.19;;;23.28;100.00
47104;BME280;32853;52.164;5.400;2023-05-22T09:01:21;101444.22;;;23.61;100.00
47104;BME280;32853;52.164;5.400;2023-05-22T09:03:47;101442.97;;;23.65;100.00
47104;BME280;32853;52.164;5.400;2023-05-22T09:06:15;101443.25;;;23.30;100.00
47104;BME280;32853;52.164;5.400;2023-05-22T09:08:41;101455.19;;;23.89;100.00
47104;BME280;32853;52.164;5.400;2023-05-22T09:11:07;101394.44;;;23.91;100.00
47104;BME280;32853;52.164;5.400;2023-05-22T09:13:32;101412.13;;;23.40;100.00
47104;BME280;32853;52.164;5.400;2023-05-22T09:15:59;101469.53;;;23.88;100.00
47104;BME280;32853;52.164;5.400;2023-05-22T09:18:28;101450.13;;;23.86;100.00
47104;BME280;32853;52.164;5.400;2023-05-22T09:20:57;101456.31;;;23.65;100.00
47104;BME280;32853;52.164;5.400;2023-05-22T09:23:26;101397.34;;;23.78;100.00
47104;BME280;32853;52.164;5.400;2023-05-22T09:25:56;101422.34;;;24.38;100.00
47104;BME280;32853;52.164;5.400;2023-05-22T09:28:23;101439.88;;;24.71;100.00
47104;BME280;32853;52.164;5.400;2023-05-22T09:31:03;101444.16;;;24.83;100.00
47104;BME280;32853;52.164;5.400;2023-05-22T09:33:30;101445.34;;;24.50;100.00
47104;BME280;32853;52.164;5.400;2023-05-22T09:35:56;101410.97;;;23.75;100.00
47104;BME280;32853;52.164;5.400;2023-05-22T09:38:27;101432.25;;;24.47;100.00
47104;BME280;32853;52.164;5.400;2023-05-22T09:41:25;101439.03;;;24.51;100.00
47104;BME280;32853;52.164;5.400;2023-05-22T09:43:54;101409.88;;;24.48;100.00
47104;BME280;32853;52.164;5.400;2023-05-22T09:46:19;101403.03;;;24.75;100.00
47104;BME280;32853;52.164;5.400;2023-05-22T09:49:00;101435.22;;;24.54;100.00
47104;BME280;32853;52.164;5.400;2023-05-22T09:51:25;101436.22;;;24.62;100.00
47104;BME280;32853;52.164;5.400;2023-05-22T09:53:56;101419.78;;;24.77;100.00
47104;BME280;32853;52.164;5.400;2023-05-22T09:56:28;101405.94;;;24.52;100.00
47104;BME280;32853;52.164;5.400;2023-05-22T09:58:55;101444.66;;;24.58;100.00
47104;BME280;32853;52.164;5.400;2023-05-22T10:01:35;101444.00;;;24.85;100.00
47104;BME280;32853;52.164;5.400;2023-05-22T10:04:37;101435.16;;;25.62;100.00
47104;BME280;32853;52.164;5.400;2023-05-22T10:07:10;101435.72;;;25.46;100.00
47104;BME280;32853;52.164;5.400;2023-05-22T10:09:40;101420.94;;;25.03;96.53
47104;BME280;32853;52.164;5.400;2023-05-22T10:12:07;101395.56;;;25.36;95.52
47104;BME280;32853;52.164;5.400;2023-05-22T10:14:41;101414.81;;;25.59;92.64
47104;BME280;32853;52.164;5.400;2023-05-22T10:17:09;101448.84;;;25.39;91.66
47104;BME280;32853;52.164;5.400;2023-05-22T10:19:36;101388.28;;;25.19;88.83
47104;BME280;32853;52.164;5.400;2023-05-22T10:22:14;101381.31;;;25.36;87.79
47104;BME280;32853;52.164;5.400;2023-05-22T10:24:45;101439.56;;;26.00;90.09
47104;BME280;32853;52.164;5.400;2023-05-22T10:27:12;101431.78;;;26.34;88.89
47104;BME280;32853;52.164;5.400;2023-05-22T10:29:48;101441.41;;;26.64;89.63
47104;BME280;32853;52.164;5.400;2023-05-22T10:32:32;101434.41;;;26.71;83.70
47104;BME280;32853;52.164;5.400;2023-05-22T10:35:21;101433.16;;;26.48;84.33
47104;BME280;32853;52.164;5.400;2023-05-22T10:37:55;101424.69;;;26.70;80.62
47104;BME280;32853;52.164;5.400;2023-05-22T10:40:31;101395.31;;;26.69;83.73
47104;BME280;32853;52.164;5.400;2023-05-22T10:43:03;101430.72;;;27.17;79.14
47104;BME280;32853;52.164;5.400;2023-05-22T10:45:29;101394.59;;;27.12;83.21
47104;BME280;32853;52.164;5.400;2023-05-22T10:48:06;101321.53;;;26.19;81.21
47104;BME280;32853;52.164;5.400;2023-05-22T10:50:33;101380.69;;;26.99;81.89
47104;BME280;32853;52.164;5.400;2023-05-22T10:55:58;101425.03;;;27.38;78.79
47104;BME280;32853;52.164;5.400;2023-05-22T10:58:38;101384.34;;;27.59;83.75
47104;BME280;32853;52.164;5.400;2023-05-22T11:01:18;101418.66;;;27.39;73.93
47104;BME280;32853;52.164;5.400;2023-05-22T11:06:43;101399.72;;;26.87;72.07
47104;BME280;32853;52.164;5.400;2023-05-22T11:11:45;101402.97;;;27.53;72.33
47104;BME280;32853;52.164;5.400;2023-05-22T11:14:11;101407.66;;;28.11;71.84
47104;BME280;32853;52.164;5.400;2023-05-22T11:16:40;101419.00;;;27.88;65.97
47104;BME280;32853;52.164;5.400;2023-05-22T11:19:06;101267.31;;;26.43;66.72
47104;BME280;32853;52.164;5.400;2023-05-22T11:21:42;101357.75;;;27.04;66.16
47104;BME280;32853;52.164;5.400;2023-05-22T11:24:08;101354.31;;;27.38;68.10
47104;BME280;32853;52.164;5.400;2023-05-22T11:26:33;101403.47;;;28.08;63.50
47104;BME280;32853;52.164;5.400;2023-05-22T11:28:59;101396.84;;;27.94;64.16
47104;BME280;32853;52.164;5.400;2023-05-22T11:31:25;101390.03;;;27.74;64.46
47104;BME280;32853;52.164;5.400;2023-05-22T11:33:52;101385.81;;;28.05;65.33
47104;BME280;32853;52.164;5.400;2023-05-22T11:36:17;101397.69;;;28.29;62.98
47104;BME280;32853;52.164;5.400;2023-05-22T11:38:46;101381.66;;;27.59;65.92
47104;BME280;32853;52.164;5.400;2023-05-22T11:41:11;101359.34;;;27.85;67.67
47104;BME280;32853;52.164;5.400;2023-05-22T11:43:37;101386.31;;;28.09;63.97
47104;BME280;32853;52.164;5.400;2023-05-22T11:46:06;101403.13;;;28.45;64.85
47104;BME280;32853;52.164;5.400;2023-05-22T11:48:33;101298.72;;;27.64;66.75
47104;BME280;32853;52.164;5.400;2023-05-22T11:51:11;101381.13;;;28.50;67.07
47104;BME280;32853;52.164;5.400;2023-05-22T11:53:36;101360.06;;;28.45;63.58
47104;BME280;32853;52.164;5.400;2023-05-22T11:56:03;101338.78;;;28.18;63.81
47104;BME280;32853;52.164;5.400;2023-05-22T11:58:29;101388.19;;;28.67;64.56
47104;BME280;32853;52.164;5.400;2023-05-22T12:00:59;101314.66;;;28.42;61.92
47104;BME280;32853;52.164;5.400;2023-05-22T12:03:25;101388.78;;;29.11;64.00
47104;BME280;32853;52.164;5.400;2023-05-22T12:05:50;101352.72;;;28.63;60.50
47104;BME280;32853;52.164;5.400;2023-05-22T12:08:16;101279.84;;;27.82;61.29
47104;BME280;32853;52.164;5.400;2023-05-22T12:10:46;101394.44;;;28.76;58.40
47104;BME280;32853;52.164;5.400;2023-05-22T12:13:12;101370.03;;;28.69;59.10
47104;BME280;32853;52.164;5.400;2023-05-22T12:15:43;101298.72;;;27.98;59.52
47104;BME280;32853;52.164;5.400;2023-05-22T12:18:17;101364.78;;;28.01;61.61
47104;BME280;32853;52.164;5.400;2023-05-22T12:20:43;101387.66;;;28.47;62.93
47104;BME280;32853;52.164;5.400;2023-05-22T12:23:27;101376.22;;;28.45;60.92
47104;BME280;32853;52.164;5.400;2023-05-22T12:25:58;101314.06;;;28.14;57.78
47104;BME280;32853;52.164;5.400;2023-05-22T12:28:24;101386.38;;;28.76;58.48
47104;BME280;32853;52.164;5.400;2023-05-22T12:30:54;101345.78;;;28.53;59.09
47104;BME280;32853;52.164;5.400;2023-05-22T12:33:30;101396.28;;;28.67;58.81
47104;BME280;32853;52.164;5.400;2023-05-22T12:36:06;101373.88;;;28.58;59.76
47104;BME280;32853;52.164;5.400;2023-05-22T12:38:39;101396.13;;;28.77;58.69
47104;BME280;32853;52.164;5.400;2023-05-22T12:41:09;101387.84;;;28.54;58.15
47104;BME280;32853;52.164;5.400;2023-05-22T12:43:34;101340.25;;;28.62;60.67
47104;BME280;32853;52.164;5.400;2023-05-22T12:46:00;101325.81;;;27.71;62.23
47104;BME280;32853;52.164;5.400;2023-05-22T12:48:26;101368.38;;;28.26;63.79
47104;BME280;32853;52.164;5.400;2023-05-22T12:50:55;101370.56;;;27.80;64.57
47104;BME280;32853;52.164;5.400;2023-05-22T12:53:21;101368.59;;;27.90;66.08
47104;BME280;32853;52.164;5.400;2023-05-22T12:55:46;101395.25;;;27.75;69.27
47104;BME280;32853;52.164;5.400;2023-05-22T12:58:13;101385.75;;;27.19;71.41
47104;BME280;32853;52.164;5.400;2023-05-22T13:00:38;101389.38;;;27.10;76.35
47104;BME280;32853;52.164;5.400;2023-05-22T13:03:09;101382.06;;;26.67;82.51
47104;BME280;32853;52.164;5.400;2023-05-22T13:05:45;101412.41;;;26.50;84.82
47104;BME280;32853;52.164;5.400;2023-05-22T13:08:10;101403.91;;;25.90;90.23
47104;BME280;32853;52.164;5.400;2023-05-22T13:10:36;101374.19;;;25.83;90.67
47104;BME280;32853;52.164;5.400;2023-05-22T13:13:02;101365.09;;;26.49;85.97
47104;BME280;32853;52.164;5.400;2023-05-22T13:15:27;101372.50;;;26.64;80.84
47104;BME280;32853;52.164;5.400;2023-05-22T13:17:54;101394.31;;;25.97;82.26
47104;BME280;32853;52.164;5.400;2023-05-22T13:20:20;101403.75;;;26.28;84.48